Alt del Turabo, Puerto Rico
Current Conditions -  °F | °C
As of 3:56 AM on Thursday 18 Dec 2014 (Local Time) from TJSJ Reporting Station
Scattered Clouds Scattered Clouds  
Wind Chill: 77°   Ceiling: Unl
Heat Index: 79°   Visibility: 10mi
Dew Point: 67°   Wind: 7mph
Humidity: 71%   Direction: 20°NNE
Pressure: 29.99"   Gusts: NA
Location:  18.2361°N, 66.0369°W
Report Text: TJSJ 180756Z 02006KT 10SM FEW060 SCT080 25/19 A2999 RMK AO2 SLP155 T02500194
Loading
Personal Weather Stations






























Interactive Weather Map New forecast layout! Learn more

10-Day Weather Forecast

Advertisements
Track Severe Weather on mobile